Time;durP1;ratioP1;P1;durP2;ratioP2;P2;SDS_P1;SDS_P2;PMS_P1;PMS_P2;Temp;Humidity;BMP_temperature;BMP_pressure;BME280_temperature;BME280_humidity;BME280_pressure;Samples;Min_cycle;Max_cycle;Signal;HPM_P1;HPM_P2
2023/03/06 00:00:49;;;;;;;3.58;2.13;;;4.10;98.20;;;;;;5074027;28;20391;-64
2023/03/06 00:03:15;;;;;;;2.80;2.20;;;4.10;98.10;;;;;;5072043;28;20120;-64
2023/03/06 00:05:41;;;;;;;3.58;2.78;;;4.10;98.20;;;;;;5070835;28;20114;-65
2023/03/06 00:08:06;;;;;;;2.38;2.10;;;4.20;98.10;;;;;;5080961;28;20036;-65
2023/03/06 00:10:32;;;;;;;4.30;2.30;;;4.20;98.10;;;;;;5081687;28;20306;-65
2023/03/06 00:13:01;;;;;;;3.55;2.33;;;4.20;98.20;;;;;;5076896;28;20032;-65
2023/03/06 00:15:27;;;;;;;3.42;2.53;;;4.20;98.30;;;;;;5081414;28;20039;-66
2023/03/06 00:17:54;;;;;;;2.90;2.20;;;4.20;98.30;;;;;;5072304;28;20029;-66
2023/03/06 00:20:21;;;;;;;4.13;2.60;;;4.20;98.70;;;;;;5083311;28;20036;-66
2023/03/06 00:22:48;;;;;;;5.05;3.55;;;4.20;98.40;;;;;;5077988;28;20117;-65
2023/03/06 00:25:16;;;;;;;5.40;3.45;;;4.20;98.40;;;;;;5081989;28;20028;-66
2023/03/06 00:27:43;;;;;;;7.72;3.38;;;4.20;98.40;;;;;;5086697;28;20050;-66
2023/03/06 00:30:17;;;;;;;5.55;3.40;;;4.20;98.40;;;;;;5078707;28;20121;-66
2023/03/06 00:32:43;;;;;;;5.25;3.30;;;4.20;98.50;;;;;;5083020;28;20028;-63
2023/03/06 00:35:10;;;;;;;4.10;3.47;;;4.20;98.60;;;;;;5070913;28;20035;-63
2023/03/06 00:37:36;;;;;;;8.85;3.95;;;4.20;98.60;;;;;;5076008;28;20676;-65
2023/03/06 00:40:08;;;;;;;4.57;3.60;;;4.30;98.70;;;;;;5077073;28;20039;-63
2023/03/06 00:42:34;;;;;;;4.95;3.22;;;4.30;98.70;;;;;;5077344;28;20032;-63
2023/03/06 00:44:59;;;;;;;6.40;3.33;;;4.30;98.80;;;;;;5075168;28;20487;-62
2023/03/06 00:47:25;;;;;;;9.45;3.83;;;4.30;98.80;;;;;;5079711;28;20178;-63
2023/03/06 00:49:51;;;;;;;4.53;3.15;;;4.30;98.80;;;;;;5081621;28;20035;-64
2023/03/06 00:52:17;;;;;;;6.47;3.67;;;4.30;98.90;;;;;;5074938;28;20024;-64
2023/03/06 00:54:43;;;;;;;6.93;2.92;;;4.30;98.90;;;;;;5073776;28;20074;-63
2023/03/06 00:57:09;;;;;;;9.10;3.08;;;4.30;98.90;;;;;;5078024;28;20035;-63
2023/03/06 00:59:35;;;;;;;7.50;2.78;;;4.30;99.00;;;;;;5078369;28;20032;-63
2023/03/06 01:02:01;;;;;;;4.90;2.90;;;4.30;99.00;;;;;;5082961;28;20051;-63
2023/03/06 01:04:27;;;;;;;6.10;2.75;;;4.30;99.00;;;;;;5078320;28;20036;-63
2023/03/06 01:06:53;;;;;;;3.97;2.55;;;4.40;99.00;;;;;;5078420;28;20098;-63
2023/03/06 01:09:19;;;;;;;5.20;2.63;;;4.40;99.00;;;;;;5075900;28;20029;-63
2023/03/06 01:11:45;;;;;;;3.25;2.13;;;4.40;99.10;;;;;;5069921;28;20031;-63
2023/03/06 01:14:10;;;;;;;4.82;2.45;;;4.40;99.10;;;;;;5081224;28;21167;-63
2023/03/06 01:16:36;;;;;;;3.80;2.30;;;4.40;99.10;;;;;;5085431;28;20046;-63
2023/03/06 01:19:02;;;;;;;4.85;2.50;;;4.40;99.00;;;;;;5080563;28;20043;-63
2023/03/06 01:21:28;;;;;;;4.55;2.20;;;4.40;99.00;;;;;;5071615;28;20063;-63
2023/03/06 01:23:54;;;;;;;6.00;2.47;;;4.40;99.00;;;;;;5078896;28;20114;-63
2023/03/06 01:26:20;;;;;;;3.92;2.25;;;4.40;99.10;;;;;;5069976;28;20209;-63
2023/03/06 01:28:45;;;;;;;4.88;2.50;;;4.40;99.10;;;;;;5072299;28;20039;-63
2023/03/06 01:31:11;;;;;;;4.95;2.25;;;4.40;99.00;;;;;;5081584;28;20024;-62
2023/03/06 01:33:38;;;;;;;4.15;2.22;;;4.40;99.10;;;;;;5078276;28;20039;-63
2023/03/06 01:36:10;;;;;;;5.10;2.08;;;4.40;99.10;;;;;;5074877;28;20506;-63
2023/03/06 01:38:35;;;;;;;4.55;3.05;;;4.50;99.20;;;;;;5076540;28;20051;-63
2023/03/06 01:41:02;;;;;;;5.55;2.80;;;4.40;99.10;;;;;;5071398;28;20143;-63
2023/03/06 01:43:31;;;;;;;10.07;3.03;;;4.50;99.10;;;;;;5075134;28;20032;-63
2023/03/06 01:46:12;;;;;;;6.30;3.05;;;4.40;99.00;;;;;;5077609;28;20034;-63
2023/03/06 01:48:39;;;;;;;5.88;2.78;;;4.30;99.40;;;;;;5079622;28;20391;-63
2023/03/06 01:51:05;;;;;;;6.03;2.78;;;4.20;99.60;;;;;;5077221;28;20019;-63
2023/03/06 01:53:31;;;;;;;4.65;2.67;;;4.20;99.70;;;;;;5071563;28;20027;-63
2023/03/06 01:55:57;;;;;;;5.30;3.20;;;4.20;99.90;;;;;;5081409;28;20024;-63
2023/03/06 01:58:23;;;;;;;6.05;3.13;;;4.20;99.70;;;;;;5080307;28;20036;-62
2023/03/06 02:00:49;;;;;;;5.30;2.95;;;4.20;99.90;;;;;;5071316;28;20035;-63
2023/03/06 02:03:27;;;;;;;5.13;2.70;;;4.00;99.90;;;;;;5084837;28;20031;-63
2023/03/06 02:05:53;;;;;;;6.60;3.08;;;4.00;99.90;;;;;;5076485;28;20135;-63
2023/03/06 02:08:22;;;;;;;7.28;4.25;;;4.00;99.90;;;;;;5080268;28;20217;-63
2023/03/06 02:11:06;;;;;;;10.65;3.22;;;4.10;99.90;;;;;;5077001;28;20020;-63
2023/03/06 02:13:33;;;;;;;9.25;3.22;;;4.10;99.90;;;;;;5084031;28;20036;-63
2023/03/06 02:15:59;;;;;;;8.07;3.45;;;4.10;99.90;;;;;;5079037;28;20035;-63
2023/03/06 02:18:26;;;;;;;5.55;3.05;;;4.10;99.90;;;;;;5083444;28;20491;-63
2023/03/06 02:20:55;;;;;;;4.22;2.88;;;4.10;99.90;;;;;;5082019;28;20750;-63
2023/03/06 02:23:30;;;;;;;8.23;3.28;;;4.10;99.90;;;;;;5084384;28;20028;-63
2023/03/06 02:25:58;;;;;;;3.93;2.60;;;4.10;99.90;;;;;;5086775;28;20742;-63
2023/03/06 02:28:24;;;;;;;4.65;2.80;;;4.20;99.90;;;;;;5077738;28;20335;-63
2023/03/06 02:30:53;;;;;;;5.13;2.72;;;4.20;99.90;;;;;;5077082;28;20024;-63
2023/03/06 02:33:23;;;;;;;7.03;3.03;;;4.10;99.90;;;;;;5067508;28;20043;-63
2023/03/06 02:36:01;;;;;;;8.20;2.92;;;4.00;99.90;;;;;;5081004;28;20031;-63
2023/03/06 02:38:33;;;;;;;5.78;2.80;;;4.00;99.90;;;;;;5071591;28;20761;-63
2023/03/06 02:41:02;;;;;;;4.05;2.60;;;4.00;99.90;;;;;;5080960;28;20036;-63
2023/03/06 02:43:32;;;;;;;5.35;2.30;;;3.90;99.90;;;;;;5077951;28;20028;-63
2023/03/06 02:45:58;;;;;;;4.93;2.50;;;3.90;99.90;;;;;;5078804;28;20048;-63
2023/03/06 02:48:25;;;;;;;7.18;2.65;;;3.90;99.90;;;;;;5071043;28;20032;-63
2023/03/06 02:50:50;;;;;;;3.22;2.10;;;3.90;99.90;;;;;;5078135;28;20030;-63
2023/03/06 02:53:18;;;;;;;5.88;2.50;;;3.80;99.90;;;;;;5078903;28;20029;-63
2023/03/06 02:55:45;;;;;;;6.57;2.85;;;3.90;99.90;;;;;;5070935;28;20028;-63
2023/03/06 02:58:13;;;;;;;4.20;2.50;;;3.90;99.90;;;;;;5086628;28;20896;-63
2023/03/06 03:00:39;;;;;;;4.90;2.47;;;3.90;99.90;;;;;;5071241;28;20069;-63
2023/03/06 03:03:07;;;;;;;7.03;2.53;;;3.80;99.90;;;;;;5079669;28;20023;-63
2023/03/06 03:05:33;;;;;;;4.70;2.42;;;3.90;99.90;;;;;;5072079;28;20060;-63
2023/03/06 03:08:06;;;;;;;3.47;2.35;;;4.00;99.90;;;;;;5075277;28;20031;-63
2023/03/06 03:10:32;;;;;;;4.45;2.20;;;4.10;99.90;;;;;;5075531;28;20028;-63
2023/03/06 03:12:58;;;;;;;9.75;2.40;;;4.20;99.90;;;;;;5079575;28;20024;-63
2023/03/06 03:15:25;;;;;;;7.15;3.00;;;4.10;99.90;;;;;;5081001;28;21020;-63
2023/03/06 03:17:50;;;;;;;9.38;2.53;;;4.00;99.90;;;;;;5075960;28;20046;-63
2023/03/06 03:20:19;;;;;;;5.25;2.30;;;4.00;99.90;;;;;;5078360;28;20785;-63
2023/03/06 03:22:53;;;;;;;3.88;2.15;;;4.10;99.90;;;;;;5062641;28;20081;-63
2023/03/06 03:25:20;;;;;;;3.22;2.03;;;4.10;99.90;;;;;;5077057;28;20023;-63
2023/03/06 03:27:47;;;;;;;2.80;2.00;;;4.20;99.90;;;;;;5074767;28;20553;-63
2023/03/06 03:30:13;;;;;;;3.35;2.00;;;4.30;99.90;;;;;;5081562;28;20032;-63
2023/03/06 03:32:40;;;;;;;7.45;1.92;;;4.30;99.90;;;;;;5078777;28;20039;-63
2023/03/06 03:35:08;;;;;;;3.88;2.10;;;4.30;99.90;;;;;;5079525;28;20052;-63
2023/03/06 03:37:35;;;;;;;6.78;1.90;;;4.30;99.90;;;;;;5068350;28;20039;-63
2023/03/06 03:40:01;;;;;;;5.13;1.80;;;4.40;99.90;;;;;;5074438;28;20740;-63
2023/03/06 03:42:29;;;;;;;5.55;1.88;;;4.50;99.50;;;;;;5073577;28;20116;-63
2023/03/06 03:44:55;;;;;;;3.72;1.88;;;4.50;99.60;;;;;;5082851;28;20032;-63
2023/03/06 03:47:21;;;;;;;5.85;2.42;;;4.40;99.50;;;;;;5076801;28;20036;-63
2023/03/06 03:49:47;;;;;;;9.95;2.80;;;4.40;99.60;;;;;;5069108;28;20506;-63
2023/03/06 03:52:14;;;;;;;3.95;2.28;;;4.30;99.30;;;;;;5074492;28;20274;-63
2023/03/06 03:54:40;;;;;;;3.30;2.38;;;4.30;99.90;;;;;;5066258;28;20029;-64
2023/03/06 03:57:06;;;;;;;5.30;2.05;;;4.30;99.80;;;;;;5065804;28;20032;-63
2023/03/06 03:59:36;;;;;;;2.67;1.92;;;4.30;99.90;;;;;;5080184;28;20035;-62
2023/03/06 04:02:20;;;;;;;2.60;1.83;;;4.40;99.90;;;;;;5081795;28;20847;-63
2023/03/06 04:05:04;;;;;;;4.28;1.88;;;4.40;99.70;;;;;;5075713;28;20039;-63
2023/03/06 04:07:30;;;;;;;3.10;1.88;;;4.50;99.80;;;;;;5079920;28;20047;-63
2023/03/06 04:09:56;;;;;;;3.25;2.20;;;4.50;99.80;;;;;;5076572;28;20512;-63
2023/03/06 04:12:22;;;;;;;4.32;2.10;;;4.50;99.30;;;;;;5078897;28;20036;-64
2023/03/06 04:14:49;;;;;;;5.05;1.90;;;4.50;99.30;;;;;;5079843;28;20024;-63
2023/03/06 04:17:15;;;;;;;2.88;1.77;;;4.60;99.30;;;;;;5077946;28;20032;-63
2023/03/06 04:19:41;;;;;;;2.83;1.65;;;4.60;99.40;;;;;;5084072;28;20037;-63
2023/03/06 04:22:07;;;;;;;1.60;1.40;;;4.60;99.20;;;;;;5070170;28;20036;-64
2023/03/06 04:24:36;;;;;;;1.65;1.45;;;4.70;99.10;;;;;;5082202;28;20035;-65
2023/03/06 04:27:02;;;;;;;1.48;1.10;;;4.70;98.60;;;;;;5072892;28;20151;-64
2023/03/06 04:29:28;;;;;;;3.30;1.10;;;4.70;98.50;;;;;;5087059;28;20031;-65
2023/03/06 04:31:53;;;;;;;3.22;0.85;;;4.70;98.60;;;;;;5081810;28;20092;-64
2023/03/06 04:34:19;;;;;;;1.80;0.88;;;4.70;98.40;;;;;;5089300;28;20571;-64
2023/03/06 04:36:45;;;;;;;1.00;0.90;;;4.70;98.30;;;;;;5084517;28;20037;-65
2023/03/06 04:39:14;;;;;;;1.17;0.90;;;4.70;98.00;;;;;;5088632;28;20110;-64
2023/03/06 04:41:41;;;;;;;0.95;0.88;;;4.70;98.20;;;;;;5084021;28;20119;-64
2023/03/06 04:44:07;;;;;;;1.10;0.75;;;4.60;98.20;;;;;;5087012;28;20076;-64
2023/03/06 04:46:34;;;;;;;0.93;0.82;;;4.60;98.30;;;;;;5076485;28;20119;-64
2023/03/06 04:49:00;;;;;;;1.50;0.90;;;4.60;98.30;;;;;;5086986;28;20039;-64
2023/03/06 04:51:26;;;;;;;2.17;0.77;;;4.60;98.20;;;;;;5078232;28;20759;-64
2023/03/06 04:53:51;;;;;;;1.60;1.17;;;4.60;98.20;;;;;;5078523;28;20070;-64
2023/03/06 04:56:18;;;;;;;0.95;0.80;;;4.50;98.10;;;;;;5081028;28;20862;-64
2023/03/06 04:58:43;;;;;;;0.93;0.70;;;4.50;98.30;;;;;;5080369;28;20395;-64
2023/03/06 05:01:10;;;;;;;0.70;0.70;;;4.50;98.30;;;;;;5085267;28;20031;-64
2023/03/06 05:03:36;;;;;;;1.52;0.90;;;4.50;98.00;;;;;;5079277;28;20135;-64
2023/03/06 05:06:03;;;;;;;1.10;0.73;;;4.40;98.20;;;;;;5079784;28;20039;-64
2023/03/06 05:08:29;;;;;;;0.63;0.55;;;4.40;97.90;;;;;;5078660;28;20842;-64
2023/03/06 05:10:59;;;;;;;1.88;0.90;;;4.40;97.90;;;;;;5084523;28;20058;-64
2023/03/06 05:13:26;;;;;;;0.73;0.70;;;4.40;98.10;;;;;;5085905;28;20032;-64
2023/03/06 05:15:52;;;;;;;1.65;0.80;;;4.40;98.10;;;;;;5085527;28;20044;-64
2023/03/06 05:18:18;;;;;;;1.38;0.70;;;4.40;98.10;;;;;;5081601;28;20029;-64
2023/03/06 05:20:45;;;;;;;1.13;0.93;;;4.40;98.20;;;;;;5086084;28;20027;-64
2023/03/06 05:23:11;;;;;;;1.00;0.70;;;4.40;98.20;;;;;;5082487;28;20344;-64
2023/03/06 05:25:40;;;;;;;0.60;0.60;;;4.30;98.20;;;;;;5081452;28;20551;-64
2023/03/06 05:28:07;;;;;;;1.30;0.90;;;4.40;98.70;;;;;;5083800;28;20863;-64
2023/03/06 05:30:33;;;;;;;1.65;1.20;;;4.40;98.30;;;;;;5077983;28;20031;-64
2023/03/06 05:32:59;;;;;;;1.30;0.95;;;4.40;98.00;;;;;;5076931;28;20028;-64
2023/03/06 05:35:25;;;;;;;1.42;1.13;;;4.30;98.00;;;;;;5078206;28;20032;-64
2023/03/06 05:37:51;;;;;;;2.60;1.25;;;4.30;98.10;;;;;;5080706;28;20028;-64
2023/03/06 05:40:17;;;;;;;1.10;1.00;;;4.30;98.20;;;;;;5074937;28;20060;-64
2023/03/06 05:42:43;;;;;;;1.30;1.00;;;4.20;98.40;;;;;;5085312;28;20070;-64
2023/03/06 05:45:10;;;;;;;2.10;1.10;;;4.20;98.20;;;;;;5077049;28;20036;-64
2023/03/06 05:47:35;;;;;;;1.33;1.13;;;4.20;98.40;;;;;;5081439;28;20031;-64
2023/03/06 05:50:02;;;;;;;2.88;1.30;;;4.20;98.60;;;;;;5077955;28;20036;-64
2023/03/06 05:52:28;;;;;;;2.20;1.20;;;4.20;98.70;;;;;;5081132;28;20113;-64
2023/03/06 05:54:54;;;;;;;1.48;1.30;;;4.20;98.70;;;;;;5081574;28;20456;-64
2023/03/06 05:57:20;;;;;;;1.13;0.90;;;4.20;98.60;;;;;;5083468;28;21010;-64
2023/03/06 05:59:48;;;;;;;2.00;1.15;;;4.20;98.70;;;;;;5076152;28;20059;-64
2023/03/06 06:02:14;;;;;;;1.10;1.00;;;4.20;98.70;;;;;;5086260;28;20052;-64
2023/03/06 06:04:39;;;;;;;5.18;1.10;;;4.20;98.70;;;;;;5079847;28;20041;-64
2023/03/06 06:07:05;;;;;;;1.27;1.13;;;4.20;98.70;;;;;;5082438;28;20036;-64
2023/03/06 06:09:31;;;;;;;1.20;1.10;;;4.10;98.60;;;;;;5085398;28;20031;-64
2023/03/06 06:12:00;;;;;;;1.55;1.20;;;4.10;98.70;;;;;;5084806;28;20824;-64
2023/03/06 06:14:29;;;;;;;1.10;1.00;;;4.20;98.60;;;;;;5084004;28;20037;-64
2023/03/06 06:16:55;;;;;;;1.25;1.10;;;4.10;98.60;;;;;;5090266;28;20043;-64
2023/03/06 06:19:22;;;;;;;1.67;1.20;;;4.10;98.70;;;;;;5081368;28;20027;-64
2023/03/06 06:21:52;;;;;;;1.40;1.20;;;4.20;98.60;;;;;;5085875;28;20027;-64
2023/03/06 06:24:21;;;;;;;1.40;1.17;;;4.10;98.50;;;;;;5088331;28;20476;-64
2023/03/06 06:26:50;;;;;;;1.35;1.15;;;4.10;98.40;;;;;;5079379;28;20036;-64
2023/03/06 06:29:16;;;;;;;1.45;0.93;;;4.10;98.40;;;;;;5081150;28;20031;-65
2023/03/06 06:31:42;;;;;;;1.75;1.20;;;4.10;98.40;;;;;;5082343;28;20037;-64
2023/03/06 06:34:12;;;;;;;2.05;1.10;;;4.10;98.40;;;;;;5079272;28;20029;-64
2023/03/06 06:36:38;;;;;;;2.63;1.30;;;4.00;98.50;;;;;;5084541;28;20044;-64
2023/03/06 06:39:06;;;;;;;1.73;1.08;;;4.00;98.70;;;;;;5085965;28;20035;-64
2023/03/06 06:41:32;;;;;;;1.88;1.33;;;4.10;98.60;;;;;;5082553;28;20036;-64
2023/03/06 06:43:58;;;;;;;1.90;1.30;;;4.10;98.60;;;;;;5083666;28;20244;-64
2023/03/06 06:46:24;;;;;;;2.03;1.40;;;4.10;98.80;;;;;;5075245;28;20119;-64
2023/03/06 06:48:53;;;;;;;1.52;1.10;;;4.10;98.80;;;;;;5081606;28;20507;-64
2023/03/06 06:51:21;;;;;;;1.35;1.13;;;4.10;98.90;;;;;;5076679;28;20054;-64
2023/03/06 06:53:49;;;;;;;1.30;1.10;;;4.20;98.90;;;;;;5077546;28;20047;-64
2023/03/06 06:56:15;;;;;;;1.92;1.00;;;4.20;98.70;;;;;;5077192;28;20127;-64
2023/03/06 06:58:41;;;;;;;1.08;0.90;;;4.30;98.20;;;;;;5079863;28;20111;-64
2023/03/06 07:01:09;;;;;;;2.10;1.13;;;4.30;98.40;;;;;;5076602;28;20035;-64
2023/03/06 07:03:35;;;;;;;1.20;1.10;;;4.30;98.40;;;;;;5077430;28;20806;-64
2023/03/06 07:06:01;;;;;;;1.40;1.30;;;4.30;98.40;;;;;;5071580;28;20025;-64
2023/03/06 07:08:27;;;;;;;1.20;1.10;;;4.20;97.80;;;;;;5079383;28;20062;-64
2023/03/06 07:10:53;;;;;;;1.80;1.20;;;4.20;97.90;;;;;;5078830;28;20041;-64
2023/03/06 07:13:19;;;;;;;1.70;1.38;;;4.20;98.00;;;;;;5076263;28;20024;-64
2023/03/06 07:15:45;;;;;;;1.58;1.40;;;4.20;98.00;;;;;;5079071;28;20139;-64
2023/03/06 07:18:11;;;;;;;3.05;1.00;;;4.20;98.20;;;;;;5081551;28;20044;-64
2023/03/06 07:20:37;;;;;;;1.35;0.93;;;4.20;98.30;;;;;;5077062;28;20028;-63
2023/03/06 07:23:02;;;;;;;2.25;1.10;;;4.20;98.30;;;;;;5081602;28;20043;-63
2023/03/06 07:25:28;;;;;;;4.53;1.35;;;4.30;98.20;;;;;;5071508;28;20040;-63
2023/03/06 07:27:54;;;;;;;1.55;1.40;;;4.30;98.30;;;;;;5076265;28;20086;-63
2023/03/06 07:30:22;;;;;;;1.50;1.05;;;4.30;98.10;;;;;;5086741;28;20096;-63
2023/03/06 07:32:50;;;;;;;1.55;1.38;;;4.30;98.50;;;;;;5070430;28;20025;-63
2023/03/06 07:35:16;;;;;;;3.53;1.65;;;4.30;97.70;;;;;;5080753;28;20065;-64
2023/03/06 07:37:42;;;;;;;2.10;1.52;;;4.30;97.90;;;;;;5079711;28;20361;-63
2023/03/06 07:40:11;;;;;;;1.98;1.70;;;4.30;98.00;;;;;;5085580;28;20092;-63
2023/03/06 07:42:37;;;;;;;1.27;1.10;;;4.30;98.00;;;;;;5064783;28;20083;-63
2023/03/06 07:45:11;;;;;;;1.23;1.00;;;4.30;97.90;;;;;;5078434;28;20028;-63
2023/03/06 07:47:37;;;;;;;1.85;1.30;;;4.30;97.90;;;;;;5068016;28;20016;-64
2023/03/06 07:50:05;;;;;;;1.52;1.27;;;4.30;97.70;;;;;;5081811;28;20020;-63
2023/03/06 07:52:32;;;;;;;1.23;1.00;;;4.30;97.40;;;;;;5078228;28;20023;-63
2023/03/06 07:54:57;;;;;;;1.95;1.55;;;4.30;97.60;;;;;;5084828;28;20035;-63
2023/03/06 07:57:23;;;;;;;2.10;1.48;;;4.30;97.90;;;;;;5083713;28;20044;-64
2023/03/06 07:59:49;;;;;;;3.50;1.30;;;4.20;97.70;;;;;;5079721;28;20043;-63
2023/03/06 08:02:14;;;;;;;1.67;1.50;;;4.30;97.70;;;;;;5074850;28;20028;-63
2023/03/06 08:04:41;;;;;;;2.80;1.95;;;4.30;97.70;;;;;;5078642;28;20419;-63
2023/03/06 08:07:06;;;;;;;2.05;1.35;;;4.40;97.50;;;;;;5079198;28;20752;-63
2023/03/06 08:09:33;;;;;;;2.08;1.33;;;4.40;97.50;;;;;;5077430;28;20047;-64
2023/03/06 08:11:59;;;;;;;1.40;0.88;;;4.50;97.70;;;;;;5076686;28;20031;-64
2023/03/06 08:14:25;;;;;;;1.10;0.70;;;4.60;97.70;;;;;;5070419;28;20838;-64
2023/03/06 08:16:55;;;;;;;1.92;0.70;;;4.60;96.90;;;;;;5082656;28;20039;-64
2023/03/06 08:19:20;;;;;;;1.25;0.50;;;4.70;96.60;;;;;;5074894;28;20067;-66
2023/03/06 08:21:46;;;;;;;2.45;0.60;;;4.70;96.30;;;;;;5076019;28;20114;-66
2023/03/06 08:24:15;;;;;;;1.10;0.90;;;4.70;96.00;;;;;;5075148;28;20035;-65
2023/03/06 08:26:41;;;;;;;2.08;0.55;;;4.70;95.20;;;;;;5079777;28;20507;-68
2023/03/06 08:29:09;;;;;;;1.70;0.55;;;4.60;95.40;;;;;;5082577;28;20073;-66
2023/03/06 08:31:41;;;;;;;0.75;0.55;;;4.60;95.80;;;;;;5085023;28;20075;-66
2023/03/06 08:34:10;;;;;;;1.33;0.70;;;4.60;96.00;;;;;;5085542;28;20071;-66
2023/03/06 08:36:36;;;;;;;3.10;0.47;;;4.60;95.90;;;;;;5082863;28;20119;-66
2023/03/06 08:39:02;;;;;;;0.47;0.40;;;4.50;95.50;;;;;;5080722;28;20020;-65
2023/03/06 08:41:29;;;;;;;2.80;0.77;;;4.40;95.60;;;;;;5089021;28;20031;-65
2023/03/06 08:43:55;;;;;;;0.40;0.40;;;4.40;95.70;;;;;;5082152;28;20039;-65
2023/03/06 08:46:23;;;;;;;0.50;0.47;;;4.40;96.00;;;;;;5087842;28;20036;-65
2023/03/06 08:48:49;;;;;;;0.65;0.60;;;4.40;96.00;;;;;;5081113;28;20032;-65
2023/03/06 08:51:15;;;;;;;1.38;0.55;;;4.40;96.10;;;;;;5088874;28;20027;-65
2023/03/06 08:53:41;;;;;;;1.58;0.75;;;4.40;96.20;;;;;;5082890;28;20020;-65
2023/03/06 08:56:13;;;;;;;2.40;0.77;;;4.40;96.40;;;;;;5089977;28;20553;-65
2023/03/06 08:58:39;;;;;;;1.42;0.60;;;4.40;96.10;;;;;;5078767;28;20067;-66
2023/03/06 09:01:06;;;;;;;0.40;0.40;;;4.40;95.90;;;;;;5081341;28;20060;-65
2023/03/06 09:03:32;;;;;;;0.50;0.43;;;4.40;95.90;;;;;;5084695;28;20074;-65
2023/03/06 09:05:59;;;;;;;0.73;0.50;;;4.40;96.10;;;;;;5091068;28;20059;-65
2023/03/06 09:08:24;;;;;;;0.90;0.63;;;4.40;96.10;;;;;;5092007;28;20016;-65
2023/03/06 09:10:50;;;;;;;2.95;0.68;;;4.40;96.10;;;;;;5086026;28;20442;-65
2023/03/06 09:13:16;;;;;;;0.38;0.38;;;4.40;95.90;;;;;;5077337;28;20035;-65
2023/03/06 09:15:42;;;;;;;0.88;0.30;;;4.40;96.00;;;;;;5083210;28;20036;-65
2023/03/06 09:18:07;;;;;;;0.95;0.40;;;4.40;96.20;;;;;;5084940;28;20032;-65
2023/03/06 09:20:33;;;;;;;1.65;0.30;;;4.40;96.00;;;;;;5079249;28;20032;-65
2023/03/06 09:22:59;;;;;;;0.40;0.40;;;4.40;95.70;;;;;;5089826;28;20020;-65
2023/03/06 09:25:25;;;;;;;0.35;0.25;;;4.40;95.50;;;;;;5087539;28;20736;-65
2023/03/06 09:27:51;;;;;;;1.35;0.80;;;4.40;95.40;;;;;;5081920;28;20073;-65
2023/03/06 09:30:17;;;;;;;2.35;0.50;;;4.40;95.40;;;;;;5076573;28;20036;-65
2023/03/06 09:32:43;;;;;;;1.38;0.52;;;4.30;95.70;;;;;;5076932;28;20650;-65
2023/03/06 09:35:10;;;;;;;2.60;0.63;;;4.30;96.00;;;;;;5086118;28;20032;-65
2023/03/06 09:37:36;;;;;;;1.73;0.63;;;4.30;96.10;;;;;;5076993;28;20047;-65
2023/03/06 09:40:05;;;;;;;2.25;0.38;;;4.40;95.90;;;;;;5078960;28;20028;-65
2023/03/06 09:42:32;;;;;;;0.35;0.30;;;4.40;95.90;;;;;;5079735;28;20044;-65
2023/03/06 09:45:01;;;;;;;2.47;0.98;;;4.40;95.60;;;;;;5084935;28;20054;-64
2023/03/06 09:47:35;;;;;;;7.72;3.13;;;4.40;95.70;;;;;;5081824;28;20434;-65
2023/03/06 09:50:33;;;;;;;3.58;1.38;;;4.50;95.60;;;;;;5087965;28;20024;-65
2023/03/06 09:53:15;;;;;;;3.33;2.00;;;4.40;94.90;;;;;;5070114;28;20032;-66
2023/03/06 09:55:43;;;;;;;1.42;1.00;;;4.30;94.90;;;;;;5084453;28;20111;-65
2023/03/06 09:58:27;;;;;;;3.88;1.10;;;4.20;95.10;;;;;;5078479;28;20150;-65
2023/03/06 10:00:59;;;;;;;1.42;0.60;;;4.00;95.50;;;;;;5082321;28;20097;-65
2023/03/06 10:03:47;;;;;;;0.80;0.45;;;3.90;95.70;;;;;;5077284;28;20047;-64
2023/03/06 10:06:31;;;;;;;0.70;0.45;;;3.90;96.20;;;;;;5080870;28;20036;-64
2023/03/06 10:09:10;;;;;;;1.65;0.68;;;4.00;96.50;;;;;;5076275;28;20405;-65
2023/03/06 10:11:53;;;;;;;0.25;0.20;;;4.10;96.40;;;;;;5076850;28;20024;-65
2023/03/06 10:14:30;;;;;;;2.33;1.17;;;4.20;96.00;;;;;;5085377;28;20085;-65
2023/03/06 10:16:57;;;;;;;1.35;0.65;;;4.30;95.60;;;;;;5083191;28;20071;-65
2023/03/06 10:19:32;;;;;;;1.30;0.80;;;4.30;94.90;;;;;;5078709;28;20042;-65
2023/03/06 10:22:04;;;;;;;1.33;1.27;;;4.30;95.30;;;;;;5081523;28;20035;-65
2023/03/06 10:24:56;;;;;;;1.38;0.85;;;4.30;94.90;;;;;;5078745;28;20039;-65
2023/03/06 10:27:31;;;;;;;5.43;2.17;;;4.20;94.80;;;;;;5077973;28;20058;-65
2023/03/06 10:30:12;;;;;;;2.88;2.17;;;4.20;95.40;;;;;;5075147;28;20078;-65
2023/03/06 10:32:45;;;;;;;1.50;1.40;;;4.30;95.40;;;;;;5077662;28;20392;-64
2023/03/06 10:35:17;;;;;;;2.67;1.25;;;4.20;95.20;;;;;;5077468;28;20066;-64
2023/03/06 10:37:42;;;;;;;3.42;0.80;;;4.30;95.20;;;;;;5079997;28;20091;-65
2023/03/06 10:40:18;;;;;;;2.80;0.90;;;4.40;95.20;;;;;;5078324;28;20166;-65
2023/03/06 10:42:44;;;;;;;1.33;0.55;;;4.50;94.70;;;;;;5077933;28;20180;-64
2023/03/06 10:45:13;;;;;;;1.70;0.90;;;4.50;94.40;;;;;;5081058;28;20111;-64
2023/03/06 10:47:40;;;;;;;2.78;0.80;;;4.40;94.50;;;;;;5088723;28;20703;-64
2023/03/06 10:50:26;;;;;;;1.83;0.57;;;4.50;94.50;;;;;;5080607;28;20095;-65
2023/03/06 10:53:20;;;;;;;0.77;0.50;;;4.50;94.50;;;;;;5092217;28;20035;-65
2023/03/06 10:56:00;;;;;;;1.33;0.77;;;4.50;94.80;;;;;;5083310;28;20031;-65
2023/03/06 10:58:28;;;;;;;4.93;2.05;;;4.60;94.80;;;;;;5086302;28;20035;-65
2023/03/06 11:01:21;;;;;;;9.57;5.80;;;4.70;94.50;;;;;;5076937;28;20446;-65
2023/03/06 11:03:47;;;;;;;5.53;2.90;;;4.70;94.00;;;;;;5084527;28;20414;-65
2023/03/06 11:06:13;;;;;;;4.88;3.33;;;4.70;94.10;;;;;;5083927;28;20040;-65
2023/03/06 11:08:42;;;;;;;5.43;3.33;;;4.70;93.70;;;;;;5081291;28;20094;-65
2023/03/06 11:11:12;;;;;;;2.80;2.58;;;4.70;93.70;;;;;;5082656;28;20020;-65
2023/03/06 11:13:40;;;;;;;7.32;2.70;;;4.60;93.80;;;;;;5089091;28;20101;-64
2023/03/06 11:16:19;;;;;;;3.03;0.75;;;4.60;93.80;;;;;;5078159;28;20123;-65
2023/03/06 11:18:55;;;;;;;0.93;0.80;;;4.60;94.20;;;;;;5085334;28;20035;-63
2023/03/06 11:21:28;;;;;;;2.40;0.80;;;4.40;94.30;;;;;;5074163;28;20016;-64
2023/03/06 11:24:18;;;;;;;1.02;0.70;;;4.40;94.80;;;;;;5076157;28;20685;-64
2023/03/06 11:27:00;;;;;;;17.90;6.05;;;4.40;94.90;;;;;;5075424;28;20036;-64
2023/03/06 11:29:41;;;;;;;30.00;10.98;;;4.60;95.00;;;;;;5068051;28;20365;-64
2023/03/06 11:32:49;;;;;;;46.95;18.75;;;4.60;93.40;;;;;;5086914;28;20113;-64
2023/03/06 11:35:23;;;;;;;7.53;2.88;;;4.60;93.00;;;;;;5079218;28;20058;-64
2023/03/06 11:37:53;;;;;;;3.33;0.80;;;4.50;93.20;;;;;;5082833;28;20040;-64
2023/03/06 11:40:41;;;;;;;1.60;0.70;;;4.50;93.00;;;;;;5090349;28;20038;-64
2023/03/06 11:43:23;;;;;;;7.60;1.75;;;4.40;92.90;;;;;;5087880;28;20024;-64
2023/03/06 11:46:13;;;;;;;13.00;5.97;;;4.40;93.30;;;;;;5079899;28;20593;-64
2023/03/06 11:48:52;;;;;;;1.67;0.80;;;4.40;93.50;;;;;;5083354;28;20170;-65
2023/03/06 11:51:32;;;;;;;5.85;2.65;;;4.40;93.60;;;;;;5087355;28;20778;-64
2023/03/06 11:53:59;;;;;;;14.48;8.57;;;4.40;93.30;;;;;;5081743;28;20059;-64
2023/03/06 11:56:41;;;;;;;10.32;7.05;;;4.40;93.60;;;;;;5089985;28;20092;-65
2023/03/06 11:59:10;;;;;;;2.83;1.15;;;4.40;94.00;;;;;;5078696;28;20039;-64
2023/03/06 12:01:59;;;;;;;4.40;0.73;;;4.30;94.60;;;;;;5084262;28;20039;-64
2023/03/06 12:04:38;;;;;;;3.28;0.85;;;4.30;95.20;;;;;;5086951;28;20101;-64
2023/03/06 12:07:28;;;;;;;3.35;1.10;;;4.30;95.00;;;;;;5086624;28;20030;-65
2023/03/06 12:10:22;;;;;;;2.75;1.17;;;4.30;95.00;;;;;;5085727;28;20059;-64
2023/03/06 12:12:57;;;;;;;6.55;2.55;;;4.30;95.40;;;;;;5088168;28;20028;-65
2023/03/06 12:15:44;;;;;;;2.17;1.00;;;4.40;95.60;;;;;;5081252;28;20111;-64
2023/03/06 12:18:16;;;;;;;2.17;1.13;;;4.40;95.30;;;;;;5080583;28;20033;-64
2023/03/06 12:21:19;;;;;;;3.72;2.15;;;4.40;95.50;;;;;;5089675;28;20114;-65
2023/03/06 12:23:59;;;;;;;2.65;2.25;;;4.50;95.50;;;;;;5081019;28;20035;-65
2023/03/06 12:26:31;;;;;;;7.97;4.60;;;4.30;95.50;;;;;;5082313;28;20135;-65
2023/03/06 12:29:38;;;;;;;8.85;7.03;;;4.30;95.90;;;;;;5081064;28;20051;-64
2023/03/06 12:32:23;;;;;;;2.53;2.30;;;4.40;96.10;;;;;;5079136;28;20020;-64
2023/03/06 12:34:49;;;;;;;15.85;7.88;;;4.40;96.00;;;;;;5088310;28;20119;-66
2023/03/06 12:37:41;;;;;;;26.63;13.60;;;4.50;96.00;;;;;;5082354;28;20188;-64
2023/03/06 12:40:16;;;;;;;10.32;5.90;;;4.50;95.80;;;;;;5087272;28;20479;-65
2023/03/06 12:43:19;;;;;;;9.63;5.65;;;4.50;96.50;;;;;;5075451;28;20089;-64
2023/03/06 12:45:46;;;;;;;15.43;7.38;;;4.60;96.00;;;;;;5071683;28;20147;-63
2023/03/06 12:48:21;;;;;;;14.02;8.40;;;4.50;95.70;;;;;;5081461;28;20451;-65
2023/03/06 12:50:48;;;;;;;5.88;3.67;;;4.50;95.90;;;;;;5086056;28;20491;-65
2023/03/06 12:53:30;;;;;;;11.35;6.40;;;4.60;95.80;;;;;;5078856;28;20503;-65
2023/03/06 12:56:01;;;;;;;10.48;4.45;;;4.60;95.90;;;;;;5079700;28;20043;-64
2023/03/06 12:58:30;;;;;;;7.13;2.90;;;4.60;95.70;;;;;;5082203;28;20028;-64
2023/03/06 13:01:06;;;;;;;3.03;0.73;;;4.60;95.70;;;;;;5085930;28;20304;-65
2023/03/06 13:03:57;;;;;;;6.53;1.85;;;4.70;95.70;;;;;;5087257;28;20039;-65
2023/03/06 13:06:39;;;;;;;2.58;0.60;;;4.90;95.40;;;;;;5090379;28;20869;-65
2023/03/06 13:09:23;;;;;;;2.42;0.80;;;5.00;94.70;;;;;;5081503;28;20032;-65